Time;durP1;ratioP1;P1;durP2;ratioP2;P2;SDS_P1;SDS_P2;PMS_P1;PMS_P2;Temp;Humidity;BMP_temperature;BMP_pressure;BME280_temperature;BME280_humidity;BME280_pressure;Samples;Min_cycle;Max_cycle;Signal;HPM_P1;HPM_P2
2021/05/06 00:02:30;;;;;;;18.23;11.37;;;;;;;;;;4360757;32;20247;-68
2021/05/06 00:07:59;;;;;;;16.83;9.87;;;;;;;;;;4362208;32;20181;-67
2021/05/06 00:32:29;;;;;;;13.10;8.60;;;;;;;;;;4361424;32;20204;-67
2021/05/06 00:34:51;;;;;;;13.83;9.23;;;;;;;;;;4360257;33;20265;-68
2021/05/06 00:37:18;;;;;;;14.63;9.83;;;;;;;;;;4360146;32;20588;-67
2021/05/06 00:39:55;;;;;;;15.63;10.63;;;;;;;;;;4360064;32;20646;-68
2021/05/06 00:42:47;;;;;;;16.00;10.00;;;;;;;;;;4362098;32;20177;-68
2021/05/06 00:56:16;;;;;;;18.87;11.93;;;;;;;;;;4360624;32;20185;-68
2021/05/06 00:58:56;;;;;;;20.03;11.80;;;;;;;;;;4361594;32;20197;-70
2021/05/06 01:06:33;;;;;;;22.30;13.10;;;;;;;;;;4361701;32;20217;-69
2021/05/06 01:09:04;;;;;;;24.70;14.97;;;;;;;;;;4359495;33;20284;-69
2021/05/06 01:14:01;;;;;;;21.70;14.07;;;;;;;;;;4360060;32;20190;-69
2021/05/06 01:16:26;;;;;;;23.90;14.07;;;;;;;;;;4371550;32;20271;-68
2021/05/06 01:18:51;;;;;;;25.33;15.20;;;;;;;;;;4360997;33;20206;-69
2021/05/06 01:21:16;;;;;;;23.60;14.27;;;;;;;;;;4359808;33;20270;-69
2021/05/06 01:23:43;;;;;;;22.40;13.87;;;;;;;;;;4344586;33;20171;-69
2021/05/06 01:26:12;;;;;;;23.13;14.47;;;;;;;;;;4358974;33;20205;-69
2021/05/06 01:28:39;;;;;;;24.27;13.73;;;;;;;;;;4360280;32;20140;-69
2021/05/06 01:31:15;;;;;;;26.40;14.50;;;;;;;;;;4361136;32;20163;-69
2021/05/06 01:33:49;;;;;;;24.77;14.63;;;;;;;;;;4359488;33;20193;-69
2021/05/06 01:38:55;;;;;;;23.07;14.67;;;;;;;;;;4361168;33;20459;-69
2021/05/06 01:44:06;;;;;;;22.03;13.63;;;;;;;;;;4361153;33;20143;-69
2021/05/06 01:46:59;;;;;;;23.77;15.17;;;;;;;;;;4359515;33;20174;-69
2021/05/06 01:57:32;;;;;;;24.00;14.57;;;;;;;;;;4361449;33;20131;-68
2021/05/06 02:00:04;;;;;;;24.43;15.20;;;;;;;;;;4360642;33;20560;-68
2021/05/06 02:02:29;;;;;;;28.43;16.23;;;;;;;;;;4360765;33;20147;-69
2021/05/06 02:04:54;;;;;;;26.33;15.67;;;;;;;;;;4358811;33;20155;-68
2021/05/06 02:07:19;;;;;;;26.07;16.43;;;;;;;;;;4361067;33;20186;-68
2021/05/06 02:09:46;;;;;;;29.73;16.27;;;;;;;;;;4361218;33;20139;-69
2021/05/06 02:12:13;;;;;;;25.47;15.37;;;;;;;;;;4361928;32;20629;-69
2021/05/06 02:14:38;;;;;;;29.27;17.37;;;;;;;;;;4362768;32;20190;-68
2021/05/06 02:17:04;;;;;;;31.67;18.13;;;;;;;;;;4363697;32;20537;-69
2021/05/06 02:19:34;;;;;;;29.03;17.37;;;;;;;;;;4363837;32;20197;-69
2021/05/06 02:22:01;;;;;;;32.13;17.90;;;;;;;;;;4361734;32;20470;-69
2021/05/06 02:24:26;;;;;;;33.50;17.53;;;;;;;;;;4363988;32;20166;-69
2021/05/06 02:26:53;;;;;;;30.73;17.50;;;;;;;;;;4363403;32;20167;-69
2021/05/06 02:29:18;;;;;;;32.83;18.43;;;;;;;;;;4361933;33;20515;-69
2021/05/06 02:31:43;;;;;;;34.00;18.83;;;;;;;;;;4361494;33;20177;-68
2021/05/06 02:34:08;;;;;;;36.07;18.90;;;;;;;;;;4362362;32;20189;-68
2021/05/06 02:36:33;;;;;;;36.10;19.07;;;;;;;;;;4363377;32;20236;-70
2021/05/06 02:38:59;;;;;;;39.63;19.67;;;;;;;;;;4362146;33;20178;-69
2021/05/06 02:41:24;;;;;;;36.93;19.20;;;;;;;;;;4362331;32;20489;-69
2021/05/06 02:43:49;;;;;;;39.97;20.67;;;;;;;;;;4363547;32;20610;-68
2021/05/06 02:46:14;;;;;;;39.70;20.50;;;;;;;;;;4361229;33;20181;-68
2021/05/06 02:48:40;;;;;;;48.33;22.70;;;;;;;;;;4363173;32;20236;-69
2021/05/06 02:51:06;;;;;;;45.23;22.57;;;;;;;;;;4363334;32;20552;-68
2021/05/06 02:53:36;;;;;;;44.90;22.27;;;;;;;;;;4363440;32;20143;-69
2021/05/06 03:03:47;;;;;;;49.93;24.10;;;;;;;;;;4363300;32;20173;-70
2021/05/06 03:06:17;;;;;;;52.10;24.90;;;;;;;;;;4361747;32;20147;-69
2021/05/06 03:08:45;;;;;;;51.63;24.67;;;;;;;;;;4362693;32;20140;-69
2021/05/06 03:24:22;;;;;;;51.47;24.50;;;;;;;;;;4362183;32;20552;-69
2021/05/06 03:26:47;;;;;;;55.10;25.23;;;;;;;;;;4363109;32;20457;-69
2021/05/06 03:29:17;;;;;;;55.27;25.37;;;;;;;;;;4362688;32;20236;-69
2021/05/06 03:45:40;;;;;;;73.13;30.40;;;;;;;;;;4361548;32;20174;-70
2021/05/06 03:48:50;;;;;;;68.63;29.07;;;;;;;;;;4361011;32;20143;-70
2021/05/06 04:16:10;;;;;;;56.80;25.03;;;;;;;;;;4361331;32;20452;-69
2021/05/06 04:18:37;;;;;;;59.93;27.33;;;;;;;;;;4362240;32;20174;-70
2021/05/06 04:37:07;;;;;;;44.00;21.70;;;;;;;;;;4361424;32;20209;-69
2021/05/06 04:39:56;;;;;;;45.10;23.03;;;;;;;;;;4360926;32;20553;-69
2021/05/06 04:55:52;;;;;;;32.20;17.13;;;;;;;;;;4360449;32;20488;-70
2021/05/06 05:03:56;;;;;;;33.30;18.27;;;;;;;;;;4361779;32;20170;-70
2021/05/06 05:06:25;;;;;;;35.43;17.83;;;;;;;;;;4360681;32;20146;-72
2021/05/06 05:08:57;;;;;;;32.97;18.30;;;;;;;;;;4361691;32;20147;-70
2021/05/06 05:11:42;;;;;;;35.00;18.37;;;;;;;;;;4361733;32;20158;-69
2021/05/06 05:25:08;;;;;;;36.53;18.87;;;;;;;;;;4361048;33;20202;-70
2021/05/06 05:27:33;;;;;;;37.33;19.33;;;;;;;;;;4361287;33;20186;-70
2021/05/06 05:29:59;;;;;;;36.67;18.77;;;;;;;;;;4361177;33;20477;-70
2021/05/06 05:32:24;;;;;;;33.40;18.03;;;;;;;;;;4360705;33;20135;-71
2021/05/06 05:34:57;;;;;;;32.80;17.17;;;;;;;;;;4360176;33;20210;-70
2021/05/06 05:37:24;;;;;;;25.20;13.77;;;;;;;;;;4360069;33;20155;-70
2021/05/06 05:39:59;;;;;;;26.83;13.80;;;;;;;;;;4357958;33;20186;-70
2021/05/06 05:45:23;;;;;;;20.70;11.93;;;;;;;;;;4358528;33;20525;-69
2021/05/06 05:55:37;;;;;;;15.30;8.80;;;;;;;;;;4362996;32;20186;-70
2021/05/06 05:58:02;;;;;;;14.43;9.10;;;;;;;;;;4348438;33;20234;-70
2021/05/06 06:00:27;;;;;;;14.30;8.67;;;;;;;;;;4363703;32;20555;-70
2021/05/06 06:02:53;;;;;;;12.47;8.70;;;;;;;;;;4348399;33;20206;-70
2021/05/06 06:05:18;;;;;;;11.60;7.83;;;;;;;;;;4363800;32;20209;-70
2021/05/06 06:07:44;;;;;;;12.83;8.07;;;;;;;;;;4346306;33;20164;-71
2021/05/06 06:10:09;;;;;;;12.43;7.27;;;;;;;;;;4347202;33;20203;-71
2021/05/06 06:12:34;;;;;;;12.50;6.27;;;;;;;;;;4347165;33;20170;-71
2021/05/06 06:15:05;;;;;;;8.77;6.50;;;;;;;;;;4348037;33;20139;-71
2021/05/06 06:17:37;;;;;;;9.50;6.53;;;;;;;;;;4347106;33;20507;-72
2021/05/06 06:20:03;;;;;;;8.67;6.03;;;;;;;;;;4346300;33;20132;-71
2021/05/06 06:22:30;;;;;;;11.93;7.10;;;;;;;;;;4356886;32;20210;-70
2021/05/06 06:24:56;;;;;;;11.93;8.03;;;;;;;;;;4361171;32;20155;-70
2021/05/06 06:27:21;;;;;;;10.77;7.10;;;;;;;;;;4362328;32;20183;-70
2021/05/06 06:29:46;;;;;;;12.20;7.77;;;;;;;;;;4363267;32;20158;-70
2021/05/06 06:32:14;;;;;;;14.73;8.87;;;;;;;;;;4362012;32;20674;-71
2021/05/06 06:34:40;;;;;;;12.63;8.27;;;;;;;;;;4361289;32;20163;-70
2021/05/06 06:37:05;;;;;;;17.43;9.63;;;;;;;;;;4361165;32;20135;-71
2021/05/06 06:39:31;;;;;;;14.20;9.70;;;;;;;;;;4362270;32;20213;-70
2021/05/06 06:41:56;;;;;;;17.90;11.33;;;;;;;;;;4354059;33;20171;-69
2021/05/06 06:44:32;;;;;;;18.50;11.97;;;;;;;;;;4363149;32;20139;-69
2021/05/06 06:47:01;;;;;;;15.70;10.43;;;;;;;;;;4361848;32;20496;-69
2021/05/06 06:49:31;;;;;;;20.77;10.80;;;;;;;;;;4360725;33;20147;-72
2021/05/06 06:51:56;;;;;;;19.97;12.30;;;;;;;;;;4351959;33;20197;-70
2021/05/06 06:54:23;;;;;;;18.50;11.60;;;;;;;;;;4356475;33;20682;-70
2021/05/06 06:56:48;;;;;;;19.10;11.77;;;;;;;;;;4354055;33;20175;-70
2021/05/06 06:59:13;;;;;;;20.67;12.50;;;;;;;;;;4361572;32;20684;-69
2021/05/06 07:01:38;;;;;;;18.67;10.73;;;;;;;;;;4360984;33;20202;-69
2021/05/06 07:04:04;;;;;;;19.70;12.97;;;;;;;;;;4361594;32;20268;-71
2021/05/06 07:06:29;;;;;;;18.73;11.20;;;;;;;;;;4362259;32;20175;-68
2021/05/06 07:08:54;;;;;;;18.17;11.37;;;;;;;;;;4357508;32;20219;-68
2021/05/06 07:11:19;;;;;;;19.00;12.30;;;;;;;;;;4359024;33;20491;-70
2021/05/06 07:13:44;;;;;;;20.60;12.20;;;;;;;;;;4361169;32;20156;-70
2021/05/06 07:16:10;;;;;;;24.33;13.83;;;;;;;;;;4346761;33;20330;-71
2021/05/06 07:18:35;;;;;;;21.10;13.77;;;;;;;;;;4362386;32;20159;-70
2021/05/06 07:21:01;;;;;;;20.03;12.60;;;;;;;;;;4361048;32;20171;-70
2021/05/06 07:23:27;;;;;;;20.77;13.53;;;;;;;;;;4361387;32;20135;-70
2021/05/06 07:25:53;;;;;;;21.40;11.57;;;;;;;;;;4347509;33;20198;-70
2021/05/06 07:28:19;;;;;;;16.83;11.90;;;;;;;;;;4347456;33;20217;-69
2021/05/06 07:30:45;;;;;;;22.90;12.33;;;;;;;;;;4360008;32;20527;-71
2021/05/06 07:33:11;;;;;;;18.73;12.17;;;;;;;;;;4361636;32;20151;-70
2021/05/06 07:35:37;;;;;;;22.17;13.33;;;;;;;;;;4362362;32;20738;-70
2021/05/06 07:38:02;;;;;;;19.43;13.57;;;;;;;;;;4361413;32;20250;-69
2021/05/06 07:40:27;;;;;;;23.47;14.33;;;;;;;;;;4361628;32;20162;-68
2021/05/06 07:42:53;;;;;;;21.30;14.33;;;;;;;;;;4361431;32;20206;-68
2021/05/06 07:45:18;;;;;;;20.83;13.87;;;;;;;;;;4361933;32;20151;-69
2021/05/06 07:47:44;;;;;;;20.03;12.97;;;;;;;;;;4360663;33;20593;-70
2021/05/06 07:50:09;;;;;;;20.40;14.40;;;;;;;;;;4360854;32;20135;-70
2021/05/06 07:52:35;;;;;;;18.00;11.63;;;;;;;;;;4360253;32;20189;-69
2021/05/06 07:55:00;;;;;;;19.57;12.13;;;;;;;;;;4360704;32;20151;-69
2021/05/06 07:57:25;;;;;;;15.73;11.67;;;;;;;;;;4345573;33;20179;-69
2021/05/06 07:59:51;;;;;;;20.77;13.87;;;;;;;;;;4362297;32;20166;-68
2021/05/06 08:02:16;;;;;;;20.47;12.47;;;;;;;;;;4347002;33;20175;-70
2021/05/06 08:04:41;;;;;;;19.20;13.33;;;;;;;;;;4361585;32;20150;-69
2021/05/06 08:07:07;;;;;;;17.77;12.27;;;;;;;;;;4361972;32;20173;-68
2021/05/06 08:09:32;;;;;;;17.10;11.83;;;;;;;;;;4359924;32;20293;-70
2021/05/06 08:12:00;;;;;;;17.40;11.70;;;;;;;;;;4361060;32;20326;-69
2021/05/06 08:14:26;;;;;;;16.90;11.30;;;;;;;;;;4361918;32;20574;-68
2021/05/06 08:16:51;;;;;;;15.02;11.02;;;;;;;;;;4359372;32;20170;-68
2021/05/06 08:19:16;;;;;;;18.07;12.40;;;;;;;;;;4353516;33;20251;-69
2021/05/06 08:21:41;;;;;;;20.83;11.97;;;;;;;;;;4362073;32;20131;-69
2021/05/06 08:24:07;;;;;;;16.80;11.53;;;;;;;;;;4361180;32;20170;-70
2021/05/06 08:26:33;;;;;;;19.90;12.40;;;;;;;;;;4361732;32;20144;-70
2021/05/06 08:28:58;;;;;;;19.97;12.57;;;;;;;;;;4360955;32;20173;-71
2021/05/06 08:31:23;;;;;;;13.98;10.32;;;;;;;;;;4362038;32;20186;-69
2021/05/06 08:33:49;;;;;;;16.27;11.37;;;;;;;;;;4360777;32;20158;-70
2021/05/06 08:36:14;;;;;;;17.77;12.43;;;;;;;;;;4361505;32;20201;-69
2021/05/06 08:38:40;;;;;;;15.83;11.53;;;;;;;;;;4360673;32;20158;-71
2021/05/06 08:41:05;;;;;;;13.80;10.67;;;;;;;;;;4360362;32;20147;-70
2021/05/06 08:43:35;;;;;;;16.65;11.50;;;;;;;;;;4360179;33;20161;-70
2021/05/06 08:46:01;;;;;;;15.77;10.98;;;;;;;;;;4361403;32;20393;-69
2021/05/06 08:48:27;;;;;;;15.23;10.30;;;;;;;;;;4360775;32;20563;-70
2021/05/06 08:50:53;;;;;;;14.07;10.75;;;;;;;;;;4359142;32;20163;-69
2021/05/06 08:53:20;;;;;;;12.20;10.35;;;;;;;;;;4345317;33;20189;-70
2021/05/06 08:55:45;;;;;;;16.08;11.12;;;;;;;;;;4358887;32;20143;-70
2021/05/06 08:58:11;;;;;;;17.85;11.38;;;;;;;;;;4358899;33;20306;-71
2021/05/06 09:00:36;;;;;;;13.95;9.32;;;;;;;;;;4361458;32;20257;-70
2021/05/06 09:03:01;;;;;;;13.35;10.07;;;;;;;;;;4347287;32;20179;-69
2021/05/06 09:05:26;;;;;;;14.20;11.18;;;;;;;;;;4358384;32;20171;-69
2021/05/06 09:07:52;;;;;;;13.82;9.32;;;;;;;;;;4345244;33;20511;-70
2021/05/06 09:10:34;;;;;;;15.50;9.73;;;;;;;;;;4359438;32;20177;-69
2021/05/06 09:12:59;;;;;;;19.83;11.40;;;;;;;;;;4347502;32;20171;-70
2021/05/06 09:15:25;;;;;;;18.23;11.85;;;;;;;;;;4359653;32;20159;-69
2021/05/06 09:17:50;;;;;;;17.90;12.07;;;;;;;;;;4360984;32;20177;-70
2021/05/06 09:20:23;;;;;;;16.97;11.53;;;;;;;;;;4360974;32;20178;-69
2021/05/06 09:22:49;;;;;;;17.30;12.13;;;;;;;;;;4345905;33;20454;-70
2021/05/06 09:25:27;;;;;;;15.30;11.27;;;;;;;;;;4360160;33;20591;-69
2021/05/06 09:28:05;;;;;;;15.67;11.33;;;;;;;;;;4361609;33;20172;-71
2021/05/06 09:30:48;;;;;;;17.40;11.60;;;;;;;;;;4360927;33;20147;-69
2021/05/06 09:33:13;;;;;;;23.97;13.23;;;;;;;;;;4360518;33;20139;-71
2021/05/06 09:35:43;;;;;;;21.87;13.50;;;;;;;;;;4360341;33;20577;-71
2021/05/06 09:38:27;;;;;;;23.77;13.97;;;;;;;;;;4361133;33;20155;-69
2021/05/06 09:40:53;;;;;;;21.27;14.20;;;;;;;;;;4348355;33;20147;-70
2021/05/06 09:43:22;;;;;;;24.67;14.10;;;;;;;;;;4345692;33;20139;-68
2021/05/06 09:45:48;;;;;;;18.00;12.40;;;;;;;;;;4343743;33;20174;-68
2021/05/06 09:48:16;;;;;;;10.27;7.47;;;;;;;;;;4359538;33;20218;-66
2021/05/06 09:50:42;;;;;;;10.13;5.70;;;;;;;;;;4361258;33;20147;-66
2021/05/06 09:53:12;;;;;;;9.87;6.00;;;;;;;;;;4358872;33;20159;-69
2021/05/06 09:55:38;;;;;;;7.63;4.53;;;;;;;;;;4358944;33;20185;-69
2021/05/06 09:58:10;;;;;;;7.60;3.77;;;;;;;;;;4351971;33;20168;-68
2021/05/06 10:00:35;;;;;;;7.80;4.50;;;;;;;;;;4357189;33;20217;-67
2021/05/06 10:03:08;;;;;;;9.70;4.80;;;;;;;;;;4359498;33;20560;-68
2021/05/06 10:05:35;;;;;;;9.10;4.63;;;;;;;;;;4353509;33;20160;-69
2021/05/06 10:08:00;;;;;;;7.23;4.40;;;;;;;;;;4356212;33;20155;-69
2021/05/06 10:10:25;;;;;;;7.87;3.90;;;;;;;;;;4359862;33;20246;-69
2021/05/06 10:12:51;;;;;;;5.70;3.93;;;;;;;;;;4362401;32;20282;-69
2021/05/06 10:15:18;;;;;;;6.90;4.03;;;;;;;;;;4360391;32;20255;-69
2021/05/06 10:17:43;;;;;;;6.33;4.30;;;;;;;;;;4358769;33;20163;-68
2021/05/06 10:20:08;;;;;;;9.63;6.00;;;;;;;;;;4355866;33;20206;-69
2021/05/06 10:22:34;;;;;;;7.10;5.23;;;;;;;;;;4360494;33;20228;-70
2021/05/06 10:25:03;;;;;;;7.90;5.00;;;;;;;;;;4359923;33;20181;-69
2021/05/06 10:27:29;;;;;;;7.23;5.23;;;;;;;;;;4359846;33;20171;-69
2021/05/06 10:29:57;;;;;;;8.50;5.70;;;;;;;;;;4359627;33;20158;-69
2021/05/06 10:32:23;;;;;;;11.97;7.10;;;;;;;;;;4359813;32;20170;-70
2021/05/06 10:34:54;;;;;;;8.50;5.13;;;;;;;;;;4361178;32;22086;-69
2021/05/06 10:37:23;;;;;;;8.17;5.10;;;;;;;;;;4363048;32;20163;-69
2021/05/06 10:39:49;;;;;;;7.50;5.50;;;;;;;;;;4358256;32;20207;-70
2021/05/06 10:42:30;;;;;;;8.40;5.50;;;;;;;;;;4370994;32;20171;-72
2021/05/06 10:44:59;;;;;;;9.00;6.63;;;;;;;;;;4352863;32;20229;-70
2021/05/06 10:47:43;;;;;;;10.00;6.63;;;;;;;;;;4362363;32;20199;-70
2021/05/06 10:50:11;;;;;;;9.13;6.27;;;;;;;;;;4360436;32;20154;-70
2021/05/06 10:52:40;;;;;;;8.40;6.30;;;;;;;;;;4360014;32;20143;-70
2021/05/06 10:55:09;;;;;;;8.87;5.77;;;;;;;;;;4360822;32;20494;-70
2021/05/06 10:57:34;;;;;;;12.27;10.07;;;;;;;;;;4361185;32;20194;-71
2021/05/06 11:00:00;;;;;;;9.07;5.40;;;;;;;;;;4359007;33;20190;-70
2021/05/06 11:02:42;;;;;;;7.83;5.17;;;;;;;;;;4360552;32;20163;-70
2021/05/06 11:05:11;;;;;;;10.90;5.90;;;;;;;;;;4360647;32;20146;-72
2021/05/06 11:07:36;;;;;;;8.53;5.33;;;;;;;;;;4362839;32;20148;-71
2021/05/06 11:10:04;;;;;;;9.33;5.83;;;;;;;;;;4347678;33;20228;-70
2021/05/06 11:12:30;;;;;;;7.00;5.07;;;;;;;;;;4362524;32;20166;-71
2021/05/06 11:14:58;;;;;;;9.45;5.50;;;;;;;;;;4359656;33;20170;-71
2021/05/06 11:17:24;;;;;;;8.73;5.00;;;;;;;;;;4358840;32;20151;-71
2021/05/06 11:19:49;;;;;;;8.30;6.07;;;;;;;;;;4361373;32;20632;-69
2021/05/06 11:22:33;;;;;;;6.87;4.80;;;;;;;;;;4346905;33;20642;-69
2021/05/06 11:24:58;;;;;;;9.33;5.57;;;;;;;;;;4361027;32;20135;-70
2021/05/06 11:27:34;;;;;;;9.93;6.77;;;;;;;;;;4362013;32;20166;-70
2021/05/06 11:30:19;;;;;;;8.00;4.73;;;;;;;;;;4347424;33;20645;-68
2021/05/06 11:32:49;;;;;;;5.80;4.47;;;;;;;;;;4358089;32;20280;-70
2021/05/06 11:35:14;;;;;;;9.27;4.00;;;;;;;;;;4344316;33;20275;-70
2021/05/06 11:37:51;;;;;;;5.80;3.40;;;;;;;;;;4360510;32;20171;-69
2021/05/06 11:40:16;;;;;;;3.80;2.90;;;;;;;;;;4362167;32;20185;-70
2021/05/06 11:42:42;;;;;;;4.60;2.80;;;;;;;;;;4347848;33;20495;-71
2021/05/06 11:45:09;;;;;;;4.10;2.57;;;;;;;;;;4360069;32;20143;-71
2021/05/06 11:47:34;;;;;;;3.33;2.00;;;;;;;;;;4346795;33;20260;-71
2021/05/06 11:49:59;;;;;;;4.60;2.53;;;;;;;;;;4361639;32;20206;-71
2021/05/06 11:52:31;;;;;;;3.13;2.33;;;;;;;;;;4361127;32;20465;-72
2021/05/06 11:54:56;;;;;;;4.27;2.90;;;;;;;;;;4361299;32;20535;-72
2021/05/06 11:57:22;;;;;;;3.60;2.40;;;;;;;;;;4361753;32;20151;-72
2021/05/06 11:59:47;;;;;;;2.97;2.30;;;;;;;;;;4361118;32;20281;-71
2021/05/06 12:02:12;;;;;;;4.33;2.70;;;;;;;;;;4354234;32;20198;-71
2021/05/06 12:04:37;;;;;;;2.62;2.20;;;;;;;;;;4361679;32;20192;-70
2021/05/06 12:07:14;;;;;;;3.97;2.50;;;;;;;;;;4361545;32;20148;-70
2021/05/06 12:09:39;;;;;;;2.30;1.98;;;;;;;;;;4360002;33;20170;-71
2021/05/06 12:12:04;;;;;;;3.65;2.10;;;;;;;;;;4361028;32;20198;-71
2021/05/06 12:14:31;;;;;;;4.50;2.53;;;;;;;;;;4361052;32;20173;-71
2021/05/06 12:16:56;;;;;;;3.72;2.03;;;;;;;;;;4359851;32;20151;-71
2021/05/06 12:19:22;;;;;;;4.27;2.30;;;;;;;;;;4360490;32;20166;-69
2021/05/06 12:21:50;;;;;;;3.80;2.60;;;;;;;;;;4359960;32;20715;-70
2021/05/06 12:24:36;;;;;;;4.82;2.40;;;;;;;;;;4358593;32;20189;-71
2021/05/06 12:27:16;;;;;;;3.35;2.62;;;;;;;;;;4347965;32;20230;-70
2021/05/06 12:29:42;;;;;;;4.22;2.20;;;;;;;;;;4360776;32;20142;-71
2021/05/06 12:32:15;;;;;;;4.78;2.50;;;;;;;;;;4359775;33;20142;-72
2021/05/06 12:34:40;;;;;;;3.45;2.00;;;;;;;;;;4360212;32;20159;-72
2021/05/06 12:37:05;;;;;;;3.45;2.12;;;;;;;;;;4359877;32;20217;-73
2021/05/06 12:39:32;;;;;;;4.85;2.12;;;;;;;;;;4346670;33;20238;-73
2021/05/06 12:41:58;;;;;;;4.00;2.53;;;;;;;;;;4361403;32;20155;-72
2021/05/06 12:44:33;;;;;;;3.72;2.03;;;;;;;;;;4361078;32;20154;-73
2021/05/06 12:47:17;;;;;;;3.30;2.05;;;;;;;;;;4345951;33;20166;-73
2021/05/06 12:49:43;;;;;;;4.20;2.20;;;;;;;;;;4359391;33;20190;-73
2021/05/06 12:52:27;;;;;;;3.22;2.20;;;;;;;;;;4345038;33;20166;-75
2021/05/06 12:54:52;;;;;;;3.75;2.40;;;;;;;;;;4359115;33;20138;-73
2021/05/06 12:57:17;;;;;;;5.47;2.80;;;;;;;;;;4359262;32;20166;-73
2021/05/06 12:59:48;;;;;;;3.97;2.80;;;;;;;;;;4360991;32;20383;-72
2021/05/06 13:02:14;;;;;;;4.80;2.70;;;;;;;;;;4361475;32;20203;-74
2021/05/06 13:04:47;;;;;;;3.47;2.78;;;;;;;;;;4346884;33;20162;-74
2021/05/06 13:07:13;;;;;;;3.95;2.90;;;;;;;;;;4347367;32;20556;-74
2021/05/06 13:09:42;;;;;;;3.12;2.70;;;;;;;;;;4360014;32;20139;-73
2021/05/06 13:12:12;;;;;;;6.65;2.80;;;;;;;;;;4346364;33;20201;-74
2021/05/06 13:14:48;;;;;;;7.00;2.35;;;;;;;;;;4360173;32;20150;-75
2021/05/06 13:17:23;;;;;;;4.00;2.58;;;;;;;;;;4359173;32;20143;-75
2021/05/06 13:19:48;;;;;;;6.05;2.58;;;;;;;;;;4359791;32;20192;-75
2021/05/06 13:22:13;;;;;;;4.37;2.80;;;;;;;;;;4363362;32;20178;-75
2021/05/06 13:24:40;;;;;;;5.80;2.87;;;;;;;;;;4361722;33;20611;-75
2021/05/06 13:27:12;;;;;;;6.40;3.15;;;;;;;;;;4346154;33;20493;-74
2021/05/06 13:29:45;;;;;;;3.95;2.75;;;;;;;;;;4361762;33;20181;-74
2021/05/06 13:32:10;;;;;;;7.47;3.22;;;;;;;;;;4359536;33;20193;-74
2021/05/06 13:34:35;;;;;;;5.82;3.55;;;;;;;;;;4345706;33;20198;-73
2021/05/06 13:37:03;;;;;;;6.18;3.62;;;;;;;;;;4337078;32;20198;-75
2021/05/06 13:39:29;;;;;;;13.02;4.90;;;;;;;;;;4345275;33;20174;-73
2021/05/06 13:41:54;;;;;;;5.75;4.18;;;;;;;;;;4343840;33;20233;-73
2021/05/06 13:44:23;;;;;;;5.90;3.97;;;;;;;;;;4330670;33;20600;-73
2021/05/06 13:46:55;;;;;;;7.47;4.18;;;;;;;;;;4346155;33;20174;-73
2021/05/06 13:49:21;;;;;;;5.75;4.43;;;;;;;;;;4330897;33;20171;-72
2021/05/06 13:51:47;;;;;;;8.05;4.07;;;;;;;;;;4344514;33;20163;-73
2021/05/06 13:54:12;;;;;;;9.15;4.70;;;;;;;;;;4355741;33;20233;-74
2021/05/06 13:56:37;;;;;;;8.55;4.30;;;;;;;;;;4359190;33;20140;-74
2021/05/06 13:59:02;;;;;;;6.67;4.83;;;;;;;;;;4360768;33;20255;-73
2021/05/06 14:01:27;;;;;;;7.35;4.57;;;;;;;;;;4345476;33;20358;-74
2021/05/06 14:03:53;;;;;;;10.05;4.78;;;;;;;;;;4360164;33;20202;-73
2021/05/06 14:06:18;;;;;;;7.28;5.40;;;;;;;;;;4359235;33;20155;-72
2021/05/06 14:08:43;;;;;;;8.65;4.93;;;;;;;;;;4348140;32;20229;-73
2021/05/06 14:11:09;;;;;;;10.52;4.75;;;;;;;;;;4364316;32;20139;-73
2021/05/06 14:13:34;;;;;;;7.50;4.65;;;;;;;;;;4361965;32;20221;-73
2021/05/06 14:15:59;;;;;;;7.40;4.28;;;;;;;;;;4354153;32;20166;-72
2021/05/06 14:18:25;;;;;;;7.45;5.22;;;;;;;;;;4350703;33;20171;-72
2021/05/06 14:20:50;;;;;;;7.90;4.47;;;;;;;;;;4364110;32;20584;-73
2021/05/06 14:23:18;;;;;;;10.32;5.25;;;;;;;;;;4362457;32;20247;-73
2021/05/06 14:25:43;;;;;;;10.23;5.68;;;;;;;;;;4362081;32;20166;-74
2021/05/06 14:28:09;;;;;;;5.90;4.53;;;;;;;;;;4363276;32;20132;-73
2021/05/06 14:30:34;;;;;;;7.07;4.90;;;;;;;;;;4362020;33;20246;-72
2021/05/06 14:33:00;;;;;;;8.63;4.80;;;;;;;;;;4362203;32;20154;-74
2021/05/06 14:35:25;;;;;;;8.00;5.18;;;;;;;;;;4347491;33;20636;-73
2021/05/06 14:37:50;;;;;;;9.85;5.18;;;;;;;;;;4347819;33;20178;-73
2021/05/06 14:40:15;;;;;;;8.65;5.03;;;;;;;;;;4362331;32;20135;-73
2021/05/06 14:42:41;;;;;;;9.02;5.12;;;;;;;;;;4352552;32;20154;-73
2021/05/06 14:45:08;;;;;;;7.53;4.65;;;;;;;;;;4348273;33;20140;-73
2021/05/06 14:47:35;;;;;;;7.07;4.40;;;;;;;;;;4334452;33;20182;-72
2021/05/06 14:50:00;;;;;;;8.25;5.03;;;;;;;;;;4334104;33;20167;-73
2021/05/06 14:52:25;;;;;;;12.60;5.70;;;;;;;;;;4346123;33;20187;-73
2021/05/06 14:54:50;;;;;;;7.18;4.57;;;;;;;;;;4355686;32;20541;-72
2021/05/06 14:57:15;;;;;;;9.93;5.20;;;;;;;;;;4344248;33;20268;-74
2021/05/06 14:59:41;;;;;;;6.18;3.97;;;;;;;;;;4348713;33;20272;-73
2021/05/06 15:02:06;;;;;;;7.45;3.90;;;;;;;;;;4347347;33;20198;-72
2021/05/06 15:04:31;;;;;;;7.93;5.07;;;;;;;;;;4362088;32;20144;-73
2021/05/06 15:06:57;;;;;;;11.60;6.10;;;;;;;;;;4348917;32;20271;-72
2021/05/06 15:09:22;;;;;;;8.35;5.37;;;;;;;;;;4361710;32;20459;-73
2021/05/06 15:11:48;;;;;;;6.82;4.25;;;;;;;;;;4348723;33;20167;-74
2021/05/06 15:14:13;;;;;;;8.13;4.30;;;;;;;;;;4361070;33;20611;-73
2021/05/06 15:16:38;;;;;;;5.20;3.77;;;;;;;;;;4338752;33;20179;-74
2021/05/06 15:19:03;;;;;;;8.32;3.87;;;;;;;;;;4355945;32;20292;-73
2021/05/06 15:21:29;;;;;;;5.32;3.03;;;;;;;;;;4348315;32;20150;-73
2021/05/06 15:23:54;;;;;;;6.28;3.37;;;;;;;;;;4340815;32;20206;-74
2021/05/06 15:26:19;;;;;;;4.45;2.60;;;;;;;;;;4362661;32;20186;-73
2021/05/06 15:28:44;;;;;;;4.53;2.47;;;;;;;;;;4341633;33;20229;-73
2021/05/06 15:31:13;;;;;;;5.00;2.62;;;;;;;;;;4362208;32;20198;-74
2021/05/06 15:33:38;;;;;;;5.53;2.90;;;;;;;;;;4351022;32;20541;-74
2021/05/06 15:36:04;;;;;;;4.43;2.80;;;;;;;;;;4355525;32;20159;-73
2021/05/06 15:38:29;;;;;;;8.18;3.12;;;;;;;;;;4337154;33;20263;-72
2021/05/06 15:40:54;;;;;;;4.65;2.60;;;;;;;;;;4344667;33;20211;-73
2021/05/06 15:43:20;;;;;;;9.23;3.47;;;;;;;;;;4346318;33;20182;-73
2021/05/06 15:45:45;;;;;;;4.68;2.70;;;;;;;;;;4349042;33;20186;-73
2021/05/06 15:48:15;;;;;;;7.15;3.42;;;;;;;;;;4348306;32;20218;-74
2021/05/06 15:50:41;;;;;;;6.82;3.37;;;;;;;;;;4352538;32;20151;-73
2021/05/06 15:53:06;;;;;;;7.12;3.20;;;;;;;;;;4345736;32;20162;-72
2021/05/06 15:55:33;;;;;;;8.02;3.65;;;;;;;;;;4345174;33;20270;-73
2021/05/06 15:57:58;;;;;;;8.05;3.37;;;;;;;;;;4332309;33;20163;-72
2021/05/06 16:00:25;;;;;;;5.90;3.30;;;;;;;;;;4349414;32;20689;-72
2021/05/06 16:02:51;;;;;;;5.97;3.30;;;;;;;;;;4356651;32;20630;-71
2021/05/06 16:05:27;;;;;;;5.47;2.87;;;;;;;;;;4360418;32;20143;-72
2021/05/06 16:07:53;;;;;;;6.40;3.95;;;;;;;;;;4348020;32;20222;-72
2021/05/06 16:10:19;;;;;;;5.70;3.30;;;;;;;;;;4352022;33;20147;-71
2021/05/06 16:12:44;;;;;;;6.05;3.30;;;;;;;;;;4347000;33;20182;-72
2021/05/06 16:15:09;;;;;;;6.03;3.10;;;;;;;;;;4331859;33;20167;-73
2021/05/06 16:17:35;;;;;;;8.65;3.90;;;;;;;;;;4358085;32;20166;-73
2021/05/06 16:20:02;;;;;;;7.28;3.30;;;;;;;;;;4360513;32;20151;-73
2021/05/06 16:22:27;;;;;;;6.18;3.30;;;;;;;;;;4346224;33;20518;-74
2021/05/06 16:24:52;;;;;;;9.45;4.18;;;;;;;;;;4360341;32;20151;-74
2021/05/06 16:27:17;;;;;;;7.20;3.85;;;;;;;;;;4361300;32;20298;-73
2021/05/06 16:29:43;;;;;;;7.28;3.78;;;;;;;;;;4347234;33;20175;-73
2021/05/06 16:32:08;;;;;;;5.97;3.75;;;;;;;;;;4354261;32;20147;-73
2021/05/06 16:34:34;;;;;;;7.97;3.72;;;;;;;;;;4355538;32;20206;-73
2021/05/06 16:37:07;;;;;;;6.35;3.55;;;;;;;;;;4348744;32;20159;-72
2021/05/06 16:39:43;;;;;;;5.40;3.30;;;;;;;;;;4333421;33;20477;-73
2021/05/06 16:42:31;;;;;;;5.93;3.40;;;;;;;;;;4346480;33;20170;-73
2021/05/06 16:44:57;;;;;;;5.65;3.67;;;;;;;;;;4344317;33;20135;-73
2021/05/06 16:47:22;;;;;;;6.28;3.10;;;;;;;;;;4330827;33;20226;-72
2021/05/06 16:49:47;;;;;;;6.70;3.00;;;;;;;;;;4333140;33;20520;-73
2021/05/06 16:52:12;;;;;;;9.52;3.60;;;;;;;;;;4331196;33;20186;-73
2021/05/06 16:54:37;;;;;;;7.90;3.33;;;;;;;;;;4344236;33;20298;-73
2021/05/06 16:57:03;;;;;;;6.35;3.33;;;;;;;;;;4347291;32;20623;-73
2021/05/06 16:59:28;;;;;;;7.12;3.15;;;;;;;;;;4346377;33;20253;-73
2021/05/06 17:01:53;;;;;;;7.43;3.28;;;;;;;;;;4360606;32;20209;-73
2021/05/06 17:04:18;;;;;;;4.80;3.00;;;;;;;;;;4338417;33;20223;-72
2021/05/06 17:06:44;;;;;;;6.40;3.10;;;;;;;;;;4342831;33;20361;-72
2021/05/06 17:09:10;;;;;;;7.25;2.60;;;;;;;;;;4359595;32;20522;-73
2021/05/06 17:11:36;;;;;;;5.18;2.62;;;;;;;;;;4361010;32;20201;-71
2021/05/06 17:14:02;;;;;;;5.12;3.00;;;;;;;;;;4359703;33;20209;-72
2021/05/06 17:16:27;;;;;;;6.15;3.20;;;;;;;;;;4343517;33;20175;-71
2021/05/06 17:18:53;;;;;;;4.95;2.80;;;;;;;;;;4346645;33;20143;-72
2021/05/06 17:21:18;;;;;;;4.27;2.63;;;;;;;;;;4354528;32;20174;-70
2021/05/06 17:23:44;;;;;;;6.22;2.37;;;;;;;;;;4360314;32;20374;-71
2021/05/06 17:26:09;;;;;;;5.72;2.58;;;;;;;;;;4345449;33;20225;-72
2021/05/06 17:28:34;;;;;;;3.47;2.08;;;;;;;;;;4359422;33;20194;-71